X  Zatvori METAR podaci zračne luke        LDPL Pula
Temperatura
10°C Temperatura
-1°C Točka rosišta
46% Vlaga



Vjetar
8 M/S
18 MPS
30 KM/S
16 Čvorovi



70°
ISI
Trenutna situacija

Mostly Clear Uglavnom vedro
Tlak zraka 1014 (hPa) - 29.94 (inHg)
Vidljivost 6 (milje) - 10 (km)
Zračna luka
Kôd zračne luke LDPL

Lokacija: Pula
Udaljenost: 39 (km)

Metar:
METAR LDPL 220030Z 07016KT CAVOK 10/M01 Q1014

Vrijeme: 22-04-2024 02:30 CEST